createdAt,value
2018-07-28T00:01:52.027Z,9.87
2018-07-28T00:04:19.205Z,9.70
2018-07-28T00:06:46.558Z,9.87
2018-07-28T00:09:13.724Z,9.50
2018-07-28T00:11:40.850Z,9.93
2018-07-28T00:14:09.143Z,10.20
2018-07-28T00:16:37.276Z,10.10
2018-07-28T00:19:04.588Z,10.00
2018-07-28T00:21:31.805Z,9.40
2018-07-28T00:23:58.895Z,10.07
2018-07-28T00:26:27.195Z,9.73
2018-07-28T00:28:54.409Z,9.83
2018-07-28T00:31:21.707Z,9.63
2018-07-28T00:33:48.904Z,9.90
2018-07-28T00:36:16.253Z,10.20
2018-07-28T00:38:43.416Z,10.20
2018-07-28T00:41:10.522Z,9.70
2018-07-28T00:43:38.367Z,9.83
2018-07-28T00:46:05.512Z,10.20
2018-07-28T00:48:32.600Z,10.17
2018-07-28T00:50:59.746Z,9.67
2018-07-28T00:53:27.338Z,9.47
2018-07-28T00:55:54.572Z,9.97
2018-07-28T00:58:21.774Z,10.20
2018-07-28T01:00:49.041Z,9.90
2018-07-28T01:03:16.248Z,9.30
2018-07-28T01:05:43.455Z,10.70
2018-07-28T01:08:10.562Z,10.47
2018-07-28T01:10:37.738Z,9.30
2018-07-28T01:13:05.965Z,10.13
2018-07-28T01:15:33.088Z,9.70
2018-07-28T01:18:00.205Z,10.00
2018-07-28T01:20:27.455Z,10.13
2018-07-28T01:22:54.602Z,10.10
2018-07-28T01:25:22.748Z,9.43
2018-07-28T01:27:50.052Z,9.40
2018-07-28T01:30:23.354Z,9.13
2018-07-28T01:32:51.379Z,9.23
2018-07-28T01:35:18.632Z,9.33
2018-07-28T01:37:46.083Z,9.03
2018-07-28T01:40:13.481Z,10.13
2018-07-28T01:42:40.608Z,9.87
2018-07-28T01:45:08.127Z,10.37
2018-07-28T01:47:35.363Z,9.57
2018-07-28T01:50:02.530Z,10.30
2018-07-28T01:52:30.741Z,10.33
2018-07-28T01:54:57.891Z,10.63
2018-07-28T01:57:25.023Z,10.17
2018-07-28T01:59:52.262Z,10.27
2018-07-28T02:02:19.416Z,10.63
2018-07-28T02:04:47.839Z,11.10
2018-07-28T02:07:15.012Z,9.90
2018-07-28T02:09:42.184Z,11.17
2018-07-28T02:12:09.340Z,11.43
2018-07-28T02:14:37.050Z,11.50
2018-07-28T02:17:04.221Z,10.70
2018-07-28T02:19:31.331Z,11.27
2018-07-28T02:21:59.773Z,10.50
2018-07-28T02:24:26.993Z,10.50
2018-07-28T02:26:54.110Z,11.40
2018-07-28T02:29:21.306Z,10.37
2018-07-28T02:31:48.593Z,10.73
2018-07-28T02:34:15.745Z,11.50
2018-07-28T02:36:42.841Z,11.97
2018-07-28T02:39:11.040Z,12.23
2018-07-28T02:41:38.392Z,11.40
2018-07-28T02:44:07.707Z,12.23
2018-07-28T02:46:35.272Z,12.43
2018-07-28T02:49:02.432Z,12.83
2018-07-28T02:51:29.527Z,12.13
2018-07-28T02:53:56.704Z,12.50
2018-07-28T02:56:23.948Z,12.47
2018-07-28T02:58:51.106Z,12.57
2018-07-28T03:01:18.485Z,12.43
2018-07-28T03:03:46.755Z,12.63
2018-07-28T03:06:13.876Z,11.90
2018-07-28T03:08:41.016Z,12.50
2018-07-28T03:11:08.198Z,12.43
2018-07-28T03:13:35.377Z,12.13
2018-07-28T03:16:06.960Z,14.07
2018-07-28T03:18:35.103Z,13.10
2018-07-28T03:21:02.315Z,13.33
2018-07-28T03:23:29.462Z,13.40
2018-07-28T03:25:58.210Z,12.80
2018-07-28T03:28:26.499Z,13.10
2018-07-28T03:30:55.695Z,13.53
2018-07-28T03:33:23.141Z,13.20
2018-07-28T03:35:50.321Z,13.80
2018-07-28T03:38:19.833Z,13.50
2018-07-28T03:40:47.008Z,13.30
2018-07-28T03:43:14.112Z,13.67
2018-07-28T03:45:41.353Z,13.80
2018-07-28T03:48:08.469Z,13.83
2018-07-28T03:50:35.589Z,13.63
2018-07-28T03:53:02.825Z,13.33
2018-07-28T03:55:29.928Z,13.57
2018-07-28T03:57:57.551Z,12.40
2018-07-28T04:00:24.788Z,13.10
2018-07-28T04:02:57.432Z,13.53
2018-07-28T04:05:24.748Z,13.63
2018-07-28T04:07:51.891Z,13.47
2018-07-28T04:10:19.920Z,12.63
2018-07-28T04:12:47.176Z,13.13
2018-07-28T04:15:14.349Z,14.40
2018-07-28T04:17:46.507Z,14.43
2018-07-28T04:20:15.131Z,13.60
2018-07-28T04:22:42.840Z,13.70
2018-07-28T04:25:10.181Z,13.27
2018-07-28T04:27:37.275Z,14.23
2018-07-28T04:30:04.769Z,13.80
2018-07-28T04:32:31.990Z,14.40
2018-07-28T04:34:59.196Z,14.40
2018-07-28T04:37:26.545Z,13.97
2018-07-28T04:39:53.751Z,13.73
2018-07-28T04:42:20.915Z,14.67
2018-07-28T04:44:48.088Z,14.30
2018-07-28T04:47:15.421Z,14.47
2018-07-28T04:49:42.508Z,14.07
2018-07-28T04:52:09.635Z,13.50
2018-07-28T04:54:36.824Z,14.53
2018-07-28T04:57:05.240Z,14.60
2018-07-28T04:59:32.332Z,14.47
2018-07-28T05:01:59.472Z,15.97
2018-07-28T05:04:26.622Z,15.77
2018-07-28T05:06:53.740Z,15.63
2018-07-28T05:09:21.100Z,15.13
2018-07-28T05:11:49.275Z,13.30
2018-07-28T05:14:16.454Z,14.43
2018-07-28T05:16:43.800Z,15.07
2018-07-28T05:19:10.927Z,16.33
2018-07-28T05:21:40.367Z,15.17
2018-07-28T05:24:07.688Z,14.57
2018-07-28T05:26:35.520Z,15.33
2018-07-28T05:29:03.066Z,15.47
2018-07-28T05:31:32.607Z,16.07
2018-07-28T05:34:00.041Z,15.67
2018-07-28T05:36:29.654Z,15.43
2018-07-28T05:38:59.653Z,15.20
2018-07-28T05:41:27.902Z,14.90
2018-07-28T05:43:55.305Z,16.57
2018-07-28T05:46:23.400Z,16.43
2018-07-28T05:48:50.741Z,15.73
2018-07-28T05:51:20.302Z,16.30
2018-07-28T05:53:47.832Z,15.73
2018-07-28T05:56:15.288Z,15.23
2018-07-28T05:58:43.231Z,15.77
2018-07-28T06:01:10.468Z,15.47
2018-07-28T06:03:38.128Z,15.50
2018-07-28T06:06:06.588Z,14.80
2018-07-28T06:08:34.130Z,15.57
2018-07-28T06:11:02.462Z,15.07
2018-07-28T06:13:29.934Z,14.73
2018-07-28T06:15:57.485Z,13.87
2018-07-28T06:18:26.537Z,14.53
2018-07-28T06:20:55.419Z,14.13
2018-07-28T06:23:23.305Z,14.20
2018-07-28T06:25:50.797Z,14.67
2018-07-28T06:28:18.661Z,14.90
2018-07-28T06:30:45.955Z,13.63
2018-07-28T06:33:13.089Z,12.97
2018-07-28T06:35:41.337Z,12.70
2018-07-28T06:38:08.526Z,12.53
2018-07-28T06:40:36.407Z,12.63
2018-07-28T06:43:04.088Z,12.80
2018-07-28T06:45:31.525Z,13.03
2018-07-28T06:47:59.215Z,11.90
2018-07-28T06:50:26.667Z,11.77
2018-07-28T06:52:54.566Z,11.83
2018-07-28T06:55:22.204Z,10.70
2018-07-28T06:57:52.303Z,10.87
2018-07-28T07:00:23.480Z,10.43
2018-07-28T07:02:50.713Z,10.87
2018-07-28T07:05:19.100Z,10.30
2018-07-28T07:07:57.142Z,11.07
2018-07-28T07:10:29.139Z,11.03
2018-07-28T07:12:59.898Z,10.33
2018-07-28T07:15:29.721Z,10.37
2018-07-28T07:17:58.774Z,9.73
2018-07-28T07:20:29.433Z,9.67
2018-07-28T07:22:57.878Z,10.83
2018-07-28T07:25:27.057Z,10.67
2018-07-28T07:27:56.358Z,9.40
2018-07-28T07:30:25.336Z,9.33
2018-07-28T07:32:55.018Z,10.03
2018-07-28T07:35:25.020Z,9.60
2018-07-28T07:37:54.176Z,9.73
2018-07-28T07:40:24.535Z,9.07
2018-07-28T07:42:53.258Z,9.50
2018-07-28T07:45:23.608Z,9.23
2018-07-28T07:47:53.463Z,8.53
2018-07-28T07:50:22.697Z,8.77
2018-07-28T07:52:51.668Z,8.43
2018-07-28T07:55:20.274Z,8.03
2018-07-28T07:57:48.194Z,8.50
2018-07-28T08:00:16.305Z,8.33
2018-07-28T08:02:44.716Z,8.30
2018-07-28T08:05:13.697Z,7.93
2018-07-28T08:07:41.568Z,8.20
2018-07-28T08:10:10.314Z,7.57
2018-07-28T08:12:39.508Z,8.40
2018-07-28T08:15:08.431Z,9.10
2018-07-28T08:17:36.841Z,8.27
2018-07-28T08:20:07.241Z,7.60
2018-07-28T08:22:36.462Z,7.50
2018-07-28T08:25:05.207Z,7.50
2018-07-28T08:27:33.695Z,7.80
2018-07-28T08:30:02.310Z,7.60
2018-07-28T08:32:30.707Z,8.00
2018-07-28T08:34:59.198Z,8.00
2018-07-28T08:37:28.862Z,8.17
2018-07-28T08:39:56.862Z,7.97
2018-07-28T08:42:27.253Z,7.47
2018-07-28T08:44:55.936Z,7.83
2018-07-28T08:47:25.328Z,7.60
2018-07-28T08:49:53.562Z,7.80
2018-07-28T08:52:22.030Z,8.00
2018-07-28T08:54:49.605Z,7.20
2018-07-28T08:57:17.090Z,7.57
2018-07-28T08:59:44.405Z,7.80
2018-07-28T09:02:11.547Z,7.70
2018-07-28T09:04:39.086Z,7.30
2018-07-28T09:07:06.683Z,7.40
2018-07-28T09:09:34.128Z,7.20
2018-07-28T09:12:01.581Z,7.97
2018-07-28T09:14:29.291Z,7.57
2018-07-28T09:16:57.676Z,7.57
2018-07-28T09:19:25.447Z,7.17
2018-07-28T09:21:52.636Z,7.70
2018-07-28T09:24:19.780Z,7.23
2018-07-28T09:26:46.981Z,7.10
2018-07-28T09:29:14.167Z,7.13
2018-07-28T09:31:41.339Z,6.90
2018-07-28T09:34:08.691Z,6.57
2018-07-28T09:36:35.865Z,6.70
2018-07-28T09:39:05.227Z,6.90
2018-07-28T09:41:32.726Z,7.27
2018-07-28T09:44:00.125Z,7.17
2018-07-28T09:46:27.740Z,6.53
2018-07-28T09:48:55.007Z,6.90
2018-07-28T09:51:22.152Z,7.27
2018-07-28T09:53:49.329Z,6.90
2018-07-28T09:56:16.597Z,7.23
2018-07-28T09:58:43.692Z,7.40
2018-07-28T10:01:16.696Z,7.10
2018-07-28T10:03:48.490Z,6.13
2018-07-28T10:06:15.745Z,6.67
2018-07-28T10:08:42.955Z,6.33
2018-07-28T10:11:10.056Z,6.70
2018-07-28T10:13:37.324Z,6.33
2018-07-28T10:16:04.485Z,6.43
2018-07-28T10:18:31.628Z,6.53
2018-07-28T10:20:59.064Z,6.97
2018-07-28T10:23:26.627Z,6.47
2018-07-28T10:25:54.024Z,6.00
2018-07-28T10:28:21.643Z,6.53
2018-07-28T10:30:49.151Z,7.25
2018-07-28T10:33:17.248Z,7.33
2018-07-28T10:35:44.797Z,6.95
2018-07-28T10:38:11.988Z,6.28
2018-07-28T10:40:39.124Z,6.42
2018-07-28T10:43:06.326Z,6.67
2018-07-28T10:45:33.473Z,6.90
2018-07-28T10:48:00.649Z,6.42
2018-07-28T10:50:27.883Z,5.97
2018-07-28T10:52:55.059Z,6.22
2018-07-28T10:55:22.459Z,7.05
2018-07-28T10:57:50.271Z,6.80
2018-07-28T11:00:18.015Z,6.15
2018-07-28T11:02:45.244Z,6.33
2018-07-28T11:05:12.428Z,6.65
2018-07-28T11:07:39.644Z,6.00
2018-07-28T11:10:07.961Z,6.05
2018-07-28T11:12:35.858Z,6.50
2018-07-28T11:15:04.238Z,5.80
2018-07-28T11:17:32.071Z,6.12
2018-07-28T11:19:59.916Z,5.95
2018-07-28T11:22:28.207Z,6.22
2018-07-28T11:24:55.666Z,6.42
2018-07-28T11:27:23.062Z,5.92
2018-07-28T11:29:50.181Z,5.60
2018-07-28T11:32:30.134Z,5.55
2018-07-28T11:36:07.484Z,5.47
2018-07-28T11:40:48.369Z,5.92
2018-07-28T11:43:27.306Z,5.55
2018-07-28T11:45:54.525Z,5.70
2018-07-28T11:48:21.672Z,5.70
2018-07-28T11:50:48.877Z,5.75
2018-07-28T11:53:16.093Z,5.70
2018-07-28T11:55:43.219Z,5.47
2018-07-28T11:58:10.388Z,5.78
2018-07-28T12:00:38.032Z,5.45
2018-07-28T12:03:05.483Z,5.62
2018-07-28T12:05:33.207Z,5.83
2018-07-28T12:08:01.123Z,6.05
2018-07-28T12:10:29.055Z,6.08
2018-07-28T12:12:57.470Z,5.17
2018-07-28T12:15:24.813Z,5.78
2018-07-28T12:17:51.930Z,5.65
2018-07-28T12:20:20.147Z,5.62
2018-07-28T12:22:47.320Z,5.65
2018-07-28T12:25:14.456Z,5.70
2018-07-28T12:27:41.708Z,6.22
2018-07-28T12:30:10.415Z,6.00
2018-07-28T12:32:37.959Z,5.97
2018-07-28T12:35:05.733Z,5.30
2018-07-28T12:37:33.631Z,6.08
2018-07-28T12:40:01.411Z,6.22
2018-07-28T12:42:29.477Z,6.22
2018-07-28T12:44:57.443Z,6.20
2018-07-28T12:47:24.657Z,6.10
2018-07-28T12:49:51.768Z,6.25
2018-07-28T12:52:19.033Z,5.60
2018-07-28T12:54:46.133Z,5.78
2018-07-28T12:57:13.244Z,6.00
2018-07-28T12:59:40.536Z,6.42
2018-07-28T13:02:07.656Z,5.92
2018-07-28T13:04:35.259Z,6.25
2018-07-28T13:07:02.969Z,6.28
2018-07-28T13:09:30.617Z,6.25
2018-07-28T13:11:59.163Z,6.73
2018-07-28T13:14:27.296Z,6.10
2018-07-28T13:16:54.575Z,6.87
2018-07-28T13:19:21.681Z,5.80
2018-07-28T13:21:48.872Z,6.13
2018-07-28T13:24:16.451Z,5.90
2018-07-28T13:26:43.968Z,6.40
2018-07-28T13:29:11.707Z,6.80
2018-07-28T13:31:40.182Z,6.23
2018-07-28T13:34:08.303Z,6.87
2018-07-28T13:36:36.455Z,6.47
2018-07-28T13:39:07.193Z,6.40
2018-07-28T13:41:36.348Z,6.70
2018-07-28T13:44:03.544Z,6.07
2018-07-28T13:46:30.700Z,5.83
2018-07-28T13:48:57.877Z,5.67
2018-07-28T13:51:24.984Z,6.08
2018-07-28T13:53:52.135Z,6.58
2018-07-28T13:56:19.440Z,6.35
2018-07-28T13:58:46.963Z,6.40
2018-07-28T14:01:14.395Z,6.17
2018-07-28T14:03:43.433Z,6.33
2018-07-28T14:06:10.666Z,5.97
2018-07-28T14:08:37.780Z,5.95
2018-07-28T14:11:05.024Z,5.35
2018-07-28T14:13:32.308Z,5.40
2018-07-28T14:15:59.865Z,4.78
2018-07-28T14:18:27.739Z,5.05
2018-07-28T14:20:55.468Z,5.37
2018-07-28T14:23:24.185Z,5.70
2018-07-28T14:25:52.476Z,6.37
2018-07-28T14:28:20.485Z,6.20
2018-07-28T14:30:49.747Z,5.80
2018-07-28T14:33:18.581Z,5.85
2018-07-28T14:35:45.996Z,5.65
2018-07-28T14:38:13.311Z,5.15
2018-07-28T14:40:40.581Z,5.60
2018-07-28T14:43:07.764Z,5.87
2018-07-28T14:45:34.941Z,5.87
2018-07-28T14:48:02.302Z,6.15
2018-07-28T14:50:30.993Z,6.80
2018-07-28T14:52:58.865Z,6.05
2018-07-28T14:55:26.539Z,5.90
2018-07-28T14:57:54.543Z,5.25
2018-07-28T15:00:21.684Z,5.58
2018-07-28T15:02:48.957Z,5.25
2018-07-28T15:05:16.143Z,5.30
2018-07-28T15:07:43.277Z,6.05
2018-07-28T15:10:10.471Z,5.70
2018-07-28T15:12:37.623Z,5.33
2018-07-28T15:15:05.770Z,4.75
2018-07-28T15:17:33.512Z,5.12
2018-07-28T15:20:01.203Z,5.40
2018-07-28T15:22:30.536Z,5.00
2018-07-28T15:24:59.736Z,5.00
2018-07-28T15:27:28.184Z,5.50
2018-07-28T15:29:56.670Z,5.37
2018-07-28T15:32:24.441Z,5.25
2018-07-28T15:34:51.619Z,5.50
2018-07-28T15:37:18.801Z,6.10
2018-07-28T15:39:46.471Z,5.58
2018-07-28T15:42:13.645Z,5.40
2018-07-28T15:44:41.942Z,5.10
2018-07-28T15:47:09.141Z,4.72
2018-07-28T15:49:36.917Z,4.90
2018-07-28T15:52:05.025Z,4.60
2018-07-28T15:54:33.384Z,4.37
2018-07-28T15:57:01.110Z,4.70
2018-07-28T15:59:28.294Z,4.67
2018-07-28T16:01:55.595Z,4.80
2018-07-28T16:04:22.970Z,5.10
2018-07-28T16:06:50.265Z,5.05
2018-07-28T16:09:17.680Z,5.22
2018-07-28T16:11:45.131Z,4.72
2018-07-28T16:14:12.932Z,4.62
2018-07-28T16:16:40.756Z,5.00
2018-07-28T16:19:08.505Z,5.20
2018-07-28T16:21:37.005Z,5.10
2018-07-28T16:24:05.993Z,5.87
2018-07-28T16:26:34.377Z,5.92
2018-07-28T16:29:03.236Z,6.05
2018-07-28T16:31:30.905Z,5.03
2018-07-28T16:33:58.093Z,6.58
2018-07-28T16:36:25.259Z,7.30
2018-07-28T16:38:52.719Z,5.75
2018-07-28T16:41:20.021Z,5.45
2018-07-28T16:43:47.192Z,5.78
2018-07-28T16:46:14.826Z,5.20
2018-07-28T16:48:42.967Z,5.37
2018-07-28T16:51:10.689Z,5.37
2018-07-28T16:53:38.522Z,5.15
2018-07-28T16:56:08.015Z,5.55
2018-07-28T16:58:36.144Z,5.37
2018-07-28T17:01:06.179Z,5.50
2018-07-28T17:03:34.521Z,5.57
2018-07-28T17:06:03.487Z,5.27
2018-07-28T17:08:30.685Z,5.50
2018-07-28T17:10:57.908Z,5.50
2018-07-28T17:13:25.080Z,5.70
2018-07-28T17:15:52.279Z,5.60
2018-07-28T17:18:21.188Z,7.40
2018-07-28T17:20:48.561Z,5.87
2018-07-28T17:23:16.092Z,6.80
2018-07-28T17:25:43.617Z,6.33
2018-07-28T17:28:11.370Z,6.10
2018-07-28T17:30:40.692Z,5.97
2018-07-28T17:33:08.658Z,6.20
2018-07-28T17:35:40.271Z,6.07
2018-07-28T17:38:16.839Z,6.73
2018-07-28T17:40:44.918Z,5.87
2018-07-28T17:43:12.634Z,6.30
2018-07-28T17:45:41.061Z,5.87
2018-07-28T17:48:10.344Z,5.43
2018-07-28T17:50:38.243Z,5.37
2018-07-28T17:53:07.342Z,5.57
2018-07-28T17:55:37.330Z,6.57
2018-07-28T17:58:05.622Z,6.50
2018-07-28T18:00:37.082Z,6.70
2018-07-28T18:03:07.296Z,6.80
2018-07-28T18:05:36.913Z,6.40
2018-07-28T18:08:06.848Z,6.03
2018-07-28T18:10:37.247Z,6.20
2018-07-28T18:13:04.534Z,6.57
2018-07-28T18:15:31.685Z,6.50
2018-07-28T18:17:58.883Z,6.53
2018-07-28T18:20:26.114Z,6.70
2018-07-28T18:22:53.368Z,6.37
2018-07-28T18:25:20.639Z,6.87
2018-07-28T18:27:48.263Z,7.33
2018-07-28T18:30:16.237Z,6.53
2018-07-28T18:32:44.032Z,7.83
2018-07-28T18:35:12.260Z,7.60
2018-07-28T18:37:41.340Z,7.60
2018-07-28T18:40:10.483Z,7.43
2018-07-28T18:42:40.679Z,7.40
2018-07-28T18:45:09.835Z,7.90
2018-07-28T18:47:41.079Z,8.10
2018-07-28T18:50:09.415Z,7.30
2018-07-28T18:52:38.306Z,7.67
2018-07-28T18:55:06.005Z,7.70
2018-07-28T18:57:33.372Z,7.37
2018-07-28T19:00:00.576Z,9.10
2018-07-28T19:02:27.751Z,8.10
2018-07-28T19:04:55.000Z,8.40
2018-07-28T19:07:22.228Z,8.30
2018-07-28T19:09:51.865Z,8.87
2018-07-28T19:12:25.305Z,8.00
2018-07-28T19:14:52.664Z,8.27
2018-07-28T19:17:19.897Z,8.67
2018-07-28T19:19:47.584Z,8.73
2018-07-28T19:22:20.709Z,9.13
2018-07-28T19:24:50.179Z,8.60
2018-07-28T19:27:17.960Z,8.30
2018-07-28T19:29:45.757Z,8.40
2018-07-28T19:32:13.605Z,8.20
2018-07-28T19:34:41.369Z,8.10
2018-07-28T19:37:19.951Z,8.33
2018-07-28T19:39:47.725Z,7.83
2018-07-28T19:42:28.018Z,8.93
2018-07-28T19:44:55.301Z,8.13
2018-07-28T19:47:22.511Z,8.00
2018-07-28T19:49:49.784Z,8.90
2018-07-28T19:52:17.400Z,9.70
2018-07-28T19:54:45.328Z,10.87
2018-07-28T19:57:13.600Z,9.70
2018-07-28T19:59:41.621Z,11.03
2018-07-28T20:02:09.609Z,10.03
2018-07-28T20:04:38.291Z,9.17
2018-07-28T20:07:05.723Z,11.37
2018-07-28T20:09:32.988Z,9.77
2018-07-28T20:12:00.260Z,10.03
2018-07-28T20:14:28.078Z,10.17
2018-07-28T20:16:56.387Z,10.00
2018-07-28T20:19:23.946Z,11.13
2018-07-28T20:21:53.176Z,11.03
2018-07-28T20:24:21.805Z,10.70
2018-07-28T20:26:49.806Z,9.73
2018-07-28T20:29:19.210Z,11.00
2018-07-28T20:31:46.890Z,10.13
2018-07-28T20:34:14.156Z,9.97
2018-07-28T20:36:41.368Z,11.07
2018-07-28T20:39:09.840Z,10.77
2018-07-28T20:41:37.043Z,11.00
2018-07-28T20:44:04.192Z,10.90
2018-07-28T20:46:31.416Z,11.10
2018-07-28T20:48:59.078Z,11.43
2018-07-28T20:51:27.071Z,11.73
2018-07-28T20:53:55.750Z,12.27
2018-07-28T20:56:24.806Z,10.97
2018-07-28T20:58:53.360Z,11.40
2018-07-28T21:01:20.871Z,12.47
2018-07-28T21:03:48.059Z,12.07
2018-07-28T21:06:15.383Z,12.20
2018-07-28T21:08:42.503Z,11.37
2018-07-28T21:11:09.697Z,12.00
2018-07-28T21:13:36.943Z,12.17
2018-07-28T21:16:04.124Z,11.37
2018-07-28T21:18:31.860Z,12.97
2018-07-28T21:20:59.297Z,11.43
2018-07-28T21:23:26.672Z,12.50
2018-07-28T21:25:54.767Z,11.97
2018-07-28T21:28:23.753Z,13.17
2018-07-28T21:30:51.347Z,12.33
2018-07-28T21:33:18.556Z,11.87
2018-07-28T21:35:45.718Z,12.23
2018-07-28T21:38:12.887Z,12.70
2018-07-28T21:40:39.983Z,12.67
2018-07-28T21:43:07.257Z,11.47
2018-07-28T21:45:34.526Z,12.70
2018-07-28T21:48:02.361Z,13.90
2018-07-28T21:50:30.773Z,13.27
2018-07-28T21:52:58.685Z,13.23
2018-07-28T21:55:25.848Z,12.97
2018-07-28T21:57:52.975Z,12.40
2018-07-28T22:00:20.150Z,12.37
2018-07-28T22:02:47.348Z,12.37
2018-07-28T22:05:16.551Z,11.47
2018-07-28T22:07:43.728Z,11.60
2018-07-28T22:10:10.913Z,12.23
2018-07-28T22:12:38.765Z,11.63
2018-07-28T22:15:06.407Z,13.10
2018-07-28T22:17:35.236Z,13.10
2018-07-28T22:20:05.744Z,13.30
2018-07-28T22:22:33.980Z,13.93
2018-07-28T22:25:01.527Z,14.57
2018-07-28T22:27:28.770Z,14.80
2018-07-28T22:29:55.907Z,15.13
2018-07-28T22:32:23.077Z,14.53
2018-07-28T22:34:51.247Z,15.67
2018-07-28T22:37:18.378Z,13.57
2018-07-28T22:39:45.492Z,13.73
2018-07-28T22:42:12.931Z,13.90
2018-07-28T22:44:40.435Z,14.07
2018-07-28T22:47:08.098Z,13.03
2018-07-28T22:49:35.895Z,14.03
2018-07-28T22:52:03.703Z,14.40
2018-07-28T22:54:32.444Z,13.87
2018-07-28T22:56:59.661Z,14.03
2018-07-28T22:59:26.799Z,13.67
2018-07-28T23:01:55.063Z,13.27
2018-07-28T23:04:22.271Z,14.93
2018-07-28T23:06:49.445Z,14.13
2018-07-28T23:09:18.689Z,14.07
2018-07-28T23:11:46.327Z,14.33
2018-07-28T23:14:13.598Z,13.80
2018-07-28T23:16:41.230Z,12.27
2018-07-28T23:19:08.903Z,13.03
2018-07-28T23:21:36.499Z,12.47
2018-07-28T23:24:04.390Z,13.10
2018-07-28T23:26:31.655Z,11.90
2018-07-28T23:28:59.329Z,12.00
2018-07-28T23:31:26.661Z,12.63
2018-07-28T23:33:54.324Z,13.17
2018-07-28T23:36:22.072Z,14.60
2018-07-28T23:38:49.791Z,15.63
2018-07-28T23:41:17.007Z,16.53
2018-07-28T23:43:44.270Z,16.77
2018-07-28T23:46:11.383Z,16.83
2018-07-28T23:48:38.530Z,18.83
2018-07-28T23:51:05.724Z,18.00
2018-07-28T23:53:32.869Z,17.77
2018-07-28T23:56:00.065Z,17.57
2018-07-28T23:58:27.241Z,17.93
